createdAt,value
2017-06-08T00:00:54.391Z,13.09
2017-06-08T00:10:54.421Z,13.14
2017-06-08T00:20:54.393Z,13
2017-06-08T00:30:54.453Z,13.18
2017-06-08T00:40:54.375Z,13.3
2017-06-08T00:50:54.380Z,13.33
2017-06-08T01:00:54.377Z,13.3
2017-06-08T01:10:54.380Z,13.51
2017-06-08T01:20:54.380Z,13.33
2017-06-08T01:30:54.391Z,13.41
2017-06-08T01:40:54.374Z,13.21
2017-06-08T01:50:54.377Z,13.22
2017-06-08T02:00:54.410Z,13.24
2017-06-08T02:10:54.389Z,13.43
2017-06-08T02:20:54.393Z,13.47
2017-06-08T02:30:54.377Z,13.65
2017-06-08T02:40:54.372Z,13.7
2017-06-08T02:50:54.378Z,13.81
2017-06-08T03:00:54.367Z,13.8
2017-06-08T03:10:54.367Z,14.02
2017-06-08T03:20:54.354Z,14.06
2017-06-08T03:30:54.364Z,14.16
2017-06-08T03:40:54.362Z,14.16
2017-06-08T03:50:54.382Z,14.24
2017-06-08T04:00:54.383Z,14.25
2017-06-08T04:10:54.368Z,14.28
2017-06-08T04:20:54.373Z,14.21
2017-06-08T04:30:54.416Z,14.06
2017-06-08T04:40:54.357Z,13.79
2017-06-08T04:50:54.357Z,13.59
2017-06-08T05:00:54.391Z,13.3
2017-06-08T05:10:54.381Z,13.56
2017-06-08T05:20:54.362Z,13.37
2017-06-08T05:30:54.361Z,13.52
2017-06-08T05:40:54.352Z,13.8
2017-06-08T05:50:54.415Z,14.13
2017-06-08T06:00:54.364Z,14.43
2017-06-08T06:10:54.374Z,15.85
2017-06-08T06:20:54.360Z,16.55
2017-06-08T06:30:54.383Z,16.44
2017-06-08T06:40:54.367Z,17.08
2017-06-08T06:50:54.387Z,17.47
2017-06-08T07:00:54.362Z,17.29
2017-06-08T07:10:54.367Z,17.35
2017-06-08T07:20:54.456Z,17.54
2017-06-08T07:30:54.390Z,17.67
2017-06-08T07:40:54.356Z,17.91
2017-06-08T07:50:54.388Z,18.1
2017-06-08T08:00:54.370Z,17.82
2017-06-08T08:10:54.440Z,18.15
2017-06-08T08:20:54.415Z,18.76
2017-06-08T08:30:54.386Z,20.09
2017-06-08T08:40:54.378Z,22.31
2017-06-08T08:50:54.399Z,23.49
2017-06-08T09:00:54.421Z,23.5
2017-06-08T09:10:54.416Z,23.77
2017-06-08T09:20:54.405Z,23.11
2017-06-08T09:30:54.412Z,24.5
2017-06-08T09:40:54.420Z,23.75
2017-06-08T09:50:54.512Z,23.52
2017-06-08T10:00:54.399Z,23.86
2017-06-08T10:10:54.637Z,23.8
2017-06-08T10:20:54.641Z,23.95
2017-06-08T10:30:54.419Z,23.71
2017-06-08T10:40:54.406Z,23.6
2017-06-08T10:50:54.400Z,23.86
2017-06-08T11:00:54.416Z,23.15
2017-06-08T11:10:54.433Z,23.09
2017-06-08T11:20:54.481Z,23.38
2017-06-08T11:30:54.406Z,22.72
2017-06-08T11:40:54.717Z,22.97
2017-06-08T11:50:54.426Z,23.52
2017-06-08T12:01:01.614Z,23.31
2017-06-08T12:10:54.554Z,24.2
2017-06-08T12:20:54.452Z,24.52
2017-06-08T12:30:54.463Z,25.2
2017-06-08T12:40:54.436Z,25.67
2017-06-08T12:50:54.458Z,25.56
2017-06-08T13:00:54.915Z,25.72
2017-06-08T13:10:54.503Z,25.54
2017-06-08T13:20:54.544Z,25.61
2017-06-08T13:30:54.513Z,26.17
2017-06-08T13:40:54.479Z,25.68
2017-06-08T13:50:54.535Z,25.97
2017-06-08T14:00:54.485Z,25.75
2017-06-08T14:10:54.530Z,25.93
2017-06-08T14:20:54.491Z,26.39
2017-06-08T14:30:54.506Z,26.11
2017-06-08T14:40:54.506Z,25.82
2017-06-08T14:50:54.481Z,25.56
2017-06-08T15:00:54.553Z,25.62
2017-06-08T15:10:54.491Z,25.77
2017-06-08T15:20:54.597Z,25.32
2017-06-08T15:30:54.536Z,25.61
2017-06-08T15:40:54.498Z,25.59
2017-06-08T15:50:54.530Z,25.31
2017-06-08T16:00:54.493Z,25.71
2017-06-08T16:10:54.627Z,25.54
2017-06-08T16:20:54.924Z,25.49
2017-06-08T16:30:54.549Z,25.24
2017-06-08T16:40:54.657Z,25.07
2017-06-08T16:50:54.595Z,25.06
2017-06-08T17:00:54.613Z,25.43
2017-06-08T17:10:54.602Z,25.74
2017-06-08T17:20:54.585Z,25.75
2017-06-08T17:30:54.519Z,25.53
2017-06-08T17:40:54.883Z,25.54
2017-06-08T17:50:54.573Z,25.38
2017-06-08T18:00:54.519Z,25.16
2017-06-08T18:10:54.608Z,24.95
2017-06-08T18:20:54.564Z,24.2
2017-06-08T18:30:54.623Z,23.89
2017-06-08T18:40:56.156Z,23.68
2017-06-08T18:50:54.522Z,23.39
2017-06-08T19:01:08.430Z,22.92
2017-06-08T19:10:54.594Z,22.57
2017-06-08T19:20:58.763Z,22.12
2017-06-08T19:30:54.582Z,21.63
2017-06-08T19:40:54.662Z,21.06
2017-06-08T19:50:54.826Z,20.66
2017-06-08T20:00:54.578Z,20.2
2017-06-08T20:10:54.708Z,19.83
2017-06-08T20:20:55.183Z,19.55
2017-06-08T20:30:54.659Z,19.14
2017-06-08T20:40:55.102Z,18.7
2017-06-08T20:50:54.908Z,18.44
2017-06-08T21:00:54.981Z,18.19
2017-06-08T21:10:54.630Z,17.99
2017-06-08T21:20:54.640Z,17.81
2017-06-08T21:30:54.616Z,17.54
2017-06-08T21:40:54.893Z,17.53
2017-06-08T21:50:56.524Z,17.3
2017-06-08T22:00:54.554Z,17.33
2017-06-08T22:10:54.705Z,17.26
2017-06-08T22:20:54.627Z,17.18
2017-06-08T22:30:54.525Z,17.28
2017-06-08T22:40:54.606Z,17.29
2017-06-08T22:50:54.577Z,17.51
2017-06-08T23:00:54.548Z,17.59
2017-06-08T23:10:54.604Z,17.51
2017-06-08T23:20:54.624Z,17.66
2017-06-08T23:30:54.602Z,17.53
2017-06-08T23:40:54.563Z,17.46
2017-06-08T23:50:54.535Z,17.32
